Time;durP1;ratioP1;P1;durP2;ratioP2;P2;SDS_P1;SDS_P2;PMS_P1;PMS_P2;Temp;Humidity;BMP_temperature;BMP_pressure;BME280_temperature;BME280_humidity;BME280_pressure;Samples;Min_cycle;Max_cycle;Signal;HPM_P1;HPM_P2
2022/04/09 00:00:16;;;;;;;3.37;2.35;;;;;;;21.09;39.01;99625.52;1637866;87;21449;-59
2022/04/09 00:02:42;;;;;;;4.92;2.62;;;;;;;21.10;39.01;99634.02;1637909;87;20965;-59
2022/04/09 00:05:11;;;;;;;4.30;2.62;;;;;;;21.09;39.02;99625.52;1637906;86;21231;-59
2022/04/09 00:07:37;;;;;;;4.33;2.87;;;;;;;21.09;38.98;99627.67;1637903;87;20925;-59
2022/04/09 00:10:05;;;;;;;3.17;2.52;;;;;;;21.09;38.99;99621.37;1658639;85;21287;-59
2022/04/09 00:12:32;;;;;;;6.00;2.72;;;;;;;21.08;38.98;99620.56;1662565;85;21021;-59
2022/04/09 00:14:58;;;;;;;3.83;2.40;;;;;;;21.09;38.99;99611.69;1662392;85;21295;-59
2022/04/09 00:17:24;;;;;;;3.62;2.40;;;;;;;21.09;38.96;99610.30;1662492;85;21133;-59
2022/04/09 00:19:52;;;;;;;3.95;2.60;;;;;;;21.08;38.97;99608.11;1662282;86;21559;-59
2022/04/09 00:22:19;;;;;;;5.03;2.50;;;;;;;21.08;38.96;99608.69;1662445;86;20961;-59
2022/04/09 00:24:45;;;;;;;4.08;2.58;;;;;;;21.08;38.96;99610.88;1662336;85;20918;-59
2022/04/09 00:27:13;;;;;;;4.75;2.60;;;;;;;21.08;38.95;99616.98;1662657;86;21409;-59
2022/04/09 00:29:39;;;;;;;4.00;2.58;;;;;;;21.08;38.96;99621.13;1662402;85;21067;-59
2022/04/09 00:32:07;;;;;;;3.35;2.47;;;;;;;21.08;38.96;99623.89;1662699;86;20885;-59
2022/04/09 00:34:33;;;;;;;4.85;2.92;;;;;;;21.07;38.93;99622.28;1662389;86;20954;-59
2022/04/09 00:36:59;;;;;;;3.42;2.62;;;;;;;21.07;38.95;99616.75;1662503;85;20957;-59
2022/04/09 00:39:31;;;;;;;4.47;2.70;;;;;;;21.07;38.95;99622.28;1662601;86;21004;-59
2022/04/09 00:41:57;;;;;;;3.72;2.30;;;;;;;21.07;38.92;99615.36;1662796;86;21875;-59
2022/04/09 00:44:23;;;;;;;3.77;2.87;;;;;;;21.06;38.93;99612.36;1662440;86;21314;-59
2022/04/09 00:46:49;;;;;;;4.42;2.83;;;;;;;21.07;38.92;99608.45;1662183;86;21018;-59
2022/04/09 00:49:17;;;;;;;3.75;2.80;;;;;;;21.07;38.92;99608.45;1662709;86;20939;-59
2022/04/09 00:51:45;;;;;;;3.15;2.35;;;;;;;21.06;38.92;99610.98;1662372;86;20947;-59
2022/04/09 00:54:12;;;;;;;2.98;2.27;;;;;;;21.06;38.92;99613.74;1662842;86;21280;-59
2022/04/09 00:56:39;;;;;;;2.80;2.47;;;;;;;21.05;38.92;99612.94;1662532;85;20969;-59
2022/04/09 00:59:06;;;;;;;2.98;2.35;;;;;;;21.06;38.92;99612.36;1637691;86;21322;-59
2022/04/09 01:01:34;;;;;;;4.05;2.85;;;;;;;21.05;38.93;99612.16;1662590;86;21021;-59
2022/04/09 01:04:00;;;;;;;3.92;2.60;;;;;;;21.04;38.92;99607.20;1662959;86;21105;-59
2022/04/09 01:06:26;;;;;;;3.30;2.58;;;;;;;21.03;38.92;99613.88;1662344;86;21194;-59
2022/04/09 01:08:52;;;;;;;4.72;2.83;;;;;;;21.04;38.93;99611.34;1662253;85;20918;-59
2022/04/09 01:11:18;;;;;;;3.65;2.40;;;;;;;21.05;38.92;99608.02;1662768;86;20870;-59
2022/04/09 01:13:44;;;;;;;3.70;2.80;;;;;;;21.04;38.91;99602.24;1662120;86;20926;-59
2022/04/09 01:16:11;;;;;;;4.35;3.00;;;;;;;21.04;38.91;99596.14;1662819;86;21019;-59
2022/04/09 01:18:37;;;;;;;3.02;2.70;;;;;;;21.04;38.91;99593.38;1662439;85;21072;-59
2022/04/09 01:21:04;;;;;;;3.33;2.55;;;;;;;21.04;38.92;99585.66;1662307;86;21362;-59
2022/04/09 01:23:30;;;;;;;4.05;2.90;;;;;;;21.03;38.90;99586.22;1662369;85;21048;-59
2022/04/09 01:26:05;;;;;;;3.50;2.50;;;;;;;21.03;38.88;99585.42;1662649;86;20890;-59
2022/04/09 01:28:32;;;;;;;3.75;2.77;;;;;;;21.02;38.88;99587.38;1662479;85;21019;-59
2022/04/09 01:30:58;;;;;;;3.15;2.60;;;;;;;21.03;38.88;99588.19;1662665;86;21976;-59
2022/04/09 01:33:24;;;;;;;3.37;2.87;;;;;;;21.02;38.87;99584.61;1662617;86;20854;-59
2022/04/09 01:35:50;;;;;;;3.72;3.25;;;;;;;21.02;38.87;99582.41;1662427;86;21069;-59
2022/04/09 01:38:16;;;;;;;4.15;2.58;;;;;;;21.02;38.87;99579.08;1662548;86;20922;-59
2022/04/09 01:40:42;;;;;;;3.70;2.52;;;;;;;21.02;38.85;99581.84;1662358;86;20958;-59
2022/04/09 01:43:09;;;;;;;5.47;2.70;;;;;;;21.01;38.87;99577.46;1662438;85;21904;-59
2022/04/09 01:45:35;;;;;;;4.50;2.95;;;;;;;21.01;38.83;99584.95;1662361;86;20898;-59
2022/04/09 01:48:01;;;;;;;5.72;2.62;;;;;;;21.01;38.85;99587.14;1662656;86;20993;-59
2022/04/09 01:50:27;;;;;;;4.15;2.83;;;;;;;21.02;38.85;99585.18;1662163;86;20890;-59
2022/04/09 01:52:54;;;;;;;4.10;2.60;;;;;;;21.03;38.84;99595.09;1662754;86;21375;-59
2022/04/09 01:55:20;;;;;;;3.55;3.10;;;;;;;21.02;38.84;99593.48;1662359;85;21205;-59
2022/04/09 01:57:49;;;;;;;4.17;3.10;;;;;;;21.00;38.86;99592.47;1662189;86;21385;-59
2022/04/09 02:00:16;;;;;;;4.80;3.10;;;;;;;21.01;38.85;99596.01;1662589;86;20989;-59
2022/04/09 02:02:43;;;;;;;3.58;2.65;;;;;;;20.99;38.83;99593.61;1662168;85;21026;-59
2022/04/09 02:05:14;;;;;;;3.30;2.52;;;;;;;20.97;38.82;99592.56;1662452;85;21417;-59
2022/04/09 02:07:41;;;;;;;4.17;2.90;;;;;;;20.99;38.83;99597.76;1662499;86;22221;-59
2022/04/09 02:10:08;;;;;;;3.55;2.80;;;;;;;20.98;38.84;99596.95;1662589;86;21087;-59
2022/04/09 02:12:35;;;;;;;4.78;3.00;;;;;;;20.99;38.82;99592.23;1662162;85;20977;-59
2022/04/09 02:15:09;;;;;;;3.80;2.80;;;;;;;20.97;38.80;99585.66;1662709;86;20970;-59
2022/04/09 02:17:39;;;;;;;4.35;2.90;;;;;;;20.97;38.81;99585.66;1662655;85;20954;-59
2022/04/09 02:20:11;;;;;;;4.78;2.75;;;;;;;20.97;38.81;99587.03;1662555;86;21725;-59
2022/04/09 02:22:43;;;;;;;5.10;3.17;;;;;;;20.97;38.82;99577.36;1662497;86;21465;-59
2022/04/09 02:25:13;;;;;;;4.15;2.98;;;;;;;20.97;38.80;99577.93;1661834;86;21001;-59
2022/04/09 02:27:39;;;;;;;3.50;2.70;;;;;;;20.97;38.77;99573.21;1662947;86;21069;-59
2022/04/09 02:30:08;;;;;;;4.08;2.52;;;;;;;20.97;38.77;99571.02;1662421;86;20998;-59
2022/04/09 02:32:49;;;;;;;4.37;3.12;;;;;;;20.97;38.77;99576.55;1662682;86;21152;-59
2022/04/09 02:35:18;;;;;;;4.62;3.08;;;;;;;20.97;38.79;99569.64;1662104;86;20918;-59
2022/04/09 02:37:45;;;;;;;3.45;3.00;;;;;;;20.96;38.77;99569.44;1662658;85;20993;-59
2022/04/09 02:40:12;;;;;;;4.65;2.90;;;;;;;20.95;38.77;99556.76;1662540;86;21077;-59
2022/04/09 02:42:39;;;;;;;3.27;2.42;;;;;;;20.95;38.76;99554.80;1662490;85;21519;-59
2022/04/09 02:45:06;;;;;;;4.25;2.92;;;;;;;20.95;38.78;99544.31;1662530;86;21305;-59
2022/04/09 02:47:32;;;;;;;4.65;2.87;;;;;;;20.95;38.78;99550.66;1662393;86;20945;-59
2022/04/09 02:50:00;;;;;;;4.55;2.98;;;;;;;20.95;38.75;99542.93;1662670;86;20965;-59
2022/04/09 02:52:31;;;;;;;4.17;2.77;;;;;;;20.95;38.77;99543.73;1662103;86;21358;-59
2022/04/09 02:54:54;;;;;;;4.17;2.40;;;;;;;20.95;38.77;99542.93;1662033;86;21036;-59
2022/04/09 02:57:20;;;;;;;4.53;2.92;;;;;;;20.95;38.76;99540.17;1662153;86;21761;-59
2022/04/09 02:59:46;;;;;;;3.52;2.80;;;;;;;20.95;38.72;99531.88;1662257;86;20878;-59
2022/04/09 03:02:12;;;;;;;3.37;2.85;;;;;;;20.95;38.76;99528.53;1662413;86;20909;-59
2022/04/09 03:04:38;;;;;;;3.27;2.47;;;;;;;20.94;38.76;99525.53;1662370;86;20973;-59
2022/04/09 03:07:04;;;;;;;3.83;2.87;;;;;;;20.94;38.75;99520.58;1662298;86;20895;-59
2022/04/09 03:09:31;;;;;;;4.62;3.05;;;;;;;20.93;38.72;99517.00;1657737;86;21214;-59
2022/04/09 03:11:57;;;;;;;4.12;2.92;;;;;;;20.94;38.72;99516.43;1638004;87;20925;-59
2022/04/09 03:14:23;;;;;;;5.17;3.00;;;;;;;20.94;38.74;99516.43;1637746;87;20972;-59
2022/04/09 03:16:49;;;;;;;3.70;2.77;;;;;;;20.93;38.73;99513.43;1638685;87;21425;-59
2022/04/09 03:19:15;;;;;;;4.28;2.85;;;;;;;20.92;38.72;99508.48;1638038;87;22000;-59
2022/04/09 03:21:41;;;;;;;4.40;3.08;;;;;;;20.92;38.72;99511.24;1637936;87;21335;-59
2022/04/09 03:24:08;;;;;;;4.20;3.00;;;;;;;20.92;38.72;99518.16;1637741;86;21425;-59
2022/04/09 03:26:34;;;;;;;3.87;2.77;;;;;;;20.92;38.72;99520.92;1638299;86;21021;-59
2022/04/09 03:29:00;;;;;;;4.00;2.95;;;;;;;20.92;38.71;99525.06;1637794;87;21044;-59
2022/04/09 03:31:26;;;;;;;6.83;3.17;;;;;;;20.92;38.70;99523.69;1637955;87;20944;-59
2022/04/09 03:33:53;;;;;;;3.47;2.62;;;;;;;20.92;38.73;99528.41;1638236;87;21179;-59
2022/04/09 03:36:19;;;;;;;4.10;2.87;;;;;;;20.91;38.72;99535.92;1637871;87;21347;-59
2022/04/09 03:38:45;;;;;;;3.58;2.95;;;;;;;20.91;38.70;99536.49;1638317;87;21435;-59
2022/04/09 03:41:11;;;;;;;3.65;2.83;;;;;;;20.90;38.72;99539.83;1638174;86;20939;-59
2022/04/09 03:43:37;;;;;;;3.35;2.65;;;;;;;20.89;38.72;99535.45;1638226;87;20929;-59
2022/04/09 03:46:03;;;;;;;3.42;2.70;;;;;;;20.90;38.71;99534.30;1638067;86;21281;-59
2022/04/09 03:48:29;;;;;;;4.92;2.83;;;;;;;20.89;38.71;99539.59;1638323;87;21008;-59
2022/04/09 03:50:55;;;;;;;3.75;2.65;;;;;;;20.90;38.67;99533.49;1637913;86;20857;-59
2022/04/09 03:53:21;;;;;;;3.30;2.60;;;;;;;20.90;38.69;99535.69;1638010;87;21348;-59
2022/04/09 03:55:48;;;;;;;3.47;2.70;;;;;;;20.90;38.69;99535.69;1638236;87;20933;-59
2022/04/09 03:58:17;;;;;;;3.42;3.05;;;;;;;20.89;38.67;99531.30;1637981;86;21898;-59
2022/04/09 04:00:43;;;;;;;4.47;3.05;;;;;;;20.90;38.67;99530.73;1638045;87;20901;-59
2022/04/09 04:03:10;;;;;;;3.20;2.60;;;;;;;20.89;38.66;99522.20;1638111;87;21401;-59
2022/04/09 04:05:37;;;;;;;4.35;2.75;;;;;;;20.88;38.67;99522.77;1637993;87;20885;-59
2022/04/09 04:08:06;;;;;;;4.25;2.58;;;;;;;20.89;38.65;99527.73;1638168;87;21487;-59
2022/04/09 04:10:34;;;;;;;4.65;2.90;;;;;;;20.89;38.66;99531.88;1649606;85;20979;-59
2022/04/09 04:13:01;;;;;;;4.50;3.00;;;;;;;20.89;38.65;99538.79;1662254;85;20949;-59
2022/04/09 04:15:27;;;;;;;4.20;2.80;;;;;;;20.87;38.65;99539.16;1662588;86;21362;-59
2022/04/09 04:17:53;;;;;;;3.25;2.45;;;;;;;20.88;38.65;99545.47;1662331;86;20981;-59
2022/04/09 04:20:19;;;;;;;4.30;2.40;;;;;;;20.88;38.66;99553.76;1662551;86;21065;-59
2022/04/09 04:22:45;;;;;;;3.72;2.75;;;;;;;20.87;38.66;99550.22;1662484;85;21870;-59
2022/04/09 04:25:11;;;;;;;4.10;2.50;;;;;;;20.87;38.66;99543.87;1662550;86;20962;-59
2022/04/09 04:27:46;;;;;;;3.37;2.52;;;;;;;20.88;38.65;99553.76;1662175;86;21456;-59
2022/04/09 04:30:12;;;;;;;3.05;2.75;;;;;;;20.86;38.64;99551.36;1662655;86;21120;-60
2022/04/09 04:32:39;;;;;;;3.75;2.70;;;;;;;20.87;38.63;99552.98;1662739;86;21471;-60
2022/04/09 04:35:07;;;;;;;4.50;3.00;;;;;;;20.86;38.64;99556.89;1662339;86;21888;-60
2022/04/09 04:37:40;;;;;;;3.85;2.62;;;;;;;20.87;38.64;99558.51;1662774;86;21485;-60
2022/04/09 04:40:08;;;;;;;3.87;2.75;;;;;;;20.87;38.63;99555.75;1662637;85;22094;-60
2022/04/09 04:42:34;;;;;;;4.15;2.50;;;;;;;20.87;38.62;99556.31;1662760;85;21041;-60
2022/04/09 04:45:00;;;;;;;3.70;2.80;;;;;;;20.87;38.61;99559.89;1662731;86;22058;-60
2022/04/09 04:47:26;;;;;;;4.25;2.45;;;;;;;20.87;38.64;99559.08;1662759;86;21092;-60
2022/04/09 04:49:53;;;;;;;3.27;2.62;;;;;;;20.87;38.61;99559.89;1662275;86;21000;-60
2022/04/09 04:52:19;;;;;;;3.15;2.67;;;;;;;20.88;38.60;99564.81;1662301;85;20979;-60
2022/04/09 04:54:45;;;;;;;3.27;2.60;;;;;;;20.87;38.63;99569.56;1662380;86;21078;-60
2022/04/09 04:57:11;;;;;;;3.17;2.58;;;;;;;20.88;38.59;99574.49;1662284;86;20990;-60
2022/04/09 04:59:38;;;;;;;4.72;3.02;;;;;;;20.88;38.60;99571.73;1662770;86;21247;-59
2022/04/09 05:02:04;;;;;;;3.33;2.25;;;;;;;20.89;38.60;99580.26;1662366;86;21048;-60
2022/04/09 05:04:36;;;;;;;3.25;2.33;;;;;;;20.88;38.59;99580.02;1662522;86;21005;-60
2022/04/09 05:07:03;;;;;;;3.52;2.25;;;;;;;20.87;38.59;99572.33;1662424;86;21517;-60
2022/04/09 05:09:29;;;;;;;3.80;2.67;;;;;;;20.88;38.60;99579.45;1662781;86;21017;-60
2022/04/09 05:11:55;;;;;;;3.60;2.40;;;;;;;20.88;38.60;99578.64;1640891;86;21221;-60
2022/04/09 05:14:21;;;;;;;4.28;2.60;;;;;;;20.87;38.63;99579.24;1638222;87;20917;-60
2022/04/09 05:16:48;;;;;;;3.87;2.72;;;;;;;20.86;38.60;99574.86;1638370;87;21037;-60
2022/04/09 05:19:14;;;;;;;3.55;3.00;;;;;;;20.86;38.62;99574.05;1638117;87;21029;-60
2022/04/09 05:21:40;;;;;;;4.40;2.55;;;;;;;20.87;38.60;99573.72;1638327;86;21068;-60
2022/04/09 05:24:07;;;;;;;4.40;2.90;;;;;;;20.87;38.61;99571.52;1638061;87;21419;-60
2022/04/09 05:26:33;;;;;;;4.12;2.72;;;;;;;20.87;38.61;99571.52;1638399;87;21359;-60
2022/04/09 05:28:59;;;;;;;3.35;2.40;;;;;;;20.86;38.61;99563.80;1638430;87;21362;-60
2022/04/09 05:31:27;;;;;;;4.67;2.77;;;;;;;20.87;38.60;99566.80;1638388;87;22141;-60
2022/04/09 05:33:55;;;;;;;3.42;2.90;;;;;;;20.87;38.60;99565.99;1638054;86;21385;-60
2022/04/09 05:36:21;;;;;;;3.85;2.37;;;;;;;20.86;38.60;99571.28;1638332;87;21620;-60
2022/04/09 05:38:48;;;;;;;4.00;2.77;;;;;;;20.86;38.60;99576.24;1638185;87;21282;-60
2022/04/09 05:41:14;;;;;;;4.72;2.77;;;;;;;20.86;38.60;99572.67;1638271;87;22030;-60
2022/04/09 05:43:40;;;;;;;2.92;2.55;;;;;;;20.86;38.59;99569.33;1638228;87;21012;-60
2022/04/09 05:46:06;;;;;;;4.03;2.90;;;;;;;20.87;38.61;99568.19;1638162;87;20936;-59
2022/04/09 05:48:32;;;;;;;4.33;2.98;;;;;;;20.87;38.60;99577.05;1637994;87;21332;-60
2022/04/09 05:50:58;;;;;;;3.92;2.40;;;;;;;20.86;38.59;99567.95;1638079;87;21012;-60
2022/04/09 05:53:24;;;;;;;3.70;2.72;;;;;;;20.85;38.60;99559.42;1638234;87;20981;-60
2022/04/09 05:55:50;;;;;;;4.83;2.65;;;;;;;20.87;38.61;99565.42;1637821;86;20982;-60
2022/04/09 05:58:16;;;;;;;3.52;2.58;;;;;;;20.86;38.60;99561.04;1638257;86;20979;-59
2022/04/09 06:00:42;;;;;;;4.05;2.67;;;;;;;20.87;38.60;99564.61;1638321;87;21127;-60
2022/04/09 06:03:08;;;;;;;3.70;2.70;;;;;;;20.87;38.59;99562.66;1637931;87;20948;-60
2022/04/09 06:05:35;;;;;;;3.83;2.80;;;;;;;20.87;38.59;99555.75;1638052;87;20897;-60
2022/04/09 06:08:01;;;;;;;2.90;2.60;;;;;;;20.87;38.61;99557.13;1638135;86;20977;-60
2022/04/09 06:10:27;;;;;;;3.42;2.42;;;;;;;20.87;38.60;99551.59;1637944;85;20925;-60
2022/04/09 06:12:53;;;;;;;3.37;2.75;;;;;;;20.87;38.59;99559.89;1638243;87;21322;-59
2022/04/09 06:15:19;;;;;;;4.03;2.60;;;;;;;20.88;38.59;99556.52;1638297;87;21024;-59
2022/04/09 06:17:45;;;;;;;3.52;2.77;;;;;;;20.87;38.58;99556.31;1637825;87;21012;-59
2022/04/09 06:20:12;;;;;;;3.77;2.35;;;;;;;20.89;38.56;99560.91;1638084;87;21471;-60
2022/04/09 06:22:38;;;;;;;3.52;2.60;;;;;;;20.88;38.57;99557.33;1638154;86;21028;-60
2022/04/09 06:25:07;;;;;;;3.42;2.50;;;;;;;20.88;38.57;99555.95;1637950;87;21343;-60
2022/04/09 06:27:35;;;;;;;4.22;2.47;;;;;;;20.89;38.58;99556.76;1637859;87;21096;-60
2022/04/09 06:30:05;;;;;;;5.28;2.98;;;;;;;20.89;38.54;99559.52;1638415;87;21041;-60
2022/04/09 06:32:31;;;;;;;4.62;2.90;;;;;;;20.89;38.57;99558.14;1637917;86;21181;-60
2022/04/09 06:34:57;;;;;;;3.70;2.55;;;;;;;20.89;38.56;99556.76;1638085;86;21424;-60
2022/04/09 06:37:23;;;;;;;4.05;2.60;;;;;;;20.90;38.53;99557.80;1638302;87;21272;-61
2022/04/09 06:39:49;;;;;;;5.75;2.90;;;;;;;20.91;38.53;99558.61;1637927;87;21052;-60
2022/04/09 06:42:15;;;;;;;4.65;2.67;;;;;;;20.91;38.52;99559.99;1638302;87;22222;-60
2022/04/09 06:44:41;;;;;;;5.70;2.55;;;;;;;20.90;38.53;99560.56;1638165;86;21342;-61
2022/04/09 06:47:08;;;;;;;3.65;2.98;;;;;;;20.90;38.54;99555.61;1637894;87;20933;-61
2022/04/09 06:49:38;;;;;;;3.72;2.72;;;;;;;20.91;38.52;99558.61;1638124;86;21137;-60
2022/04/09 06:52:05;;;;;;;3.37;2.62;;;;;;;20.91;38.51;99558.61;1638392;86;21665;-60
2022/04/09 06:54:31;;;;;;;4.85;2.70;;;;;;;20.91;38.49;99555.27;1638022;87;21471;-60
2022/04/09 06:56:57;;;;;;;4.55;2.80;;;;;;;20.92;38.51;99549.14;1638473;87;21039;-60
2022/04/09 06:59:23;;;;;;;3.42;2.77;;;;;;;20.92;38.51;99543.61;1638077;87;22006;-60
2022/04/09 07:01:49;;;;;;;4.10;2.62;;;;;;;20.91;38.50;99546.98;1637865;87;21269;-60
2022/04/09 07:04:16;;;;;;;4.35;2.98;;;;;;;20.91;38.50;99546.98;1637784;87;20909;-60
2022/04/09 07:06:46;;;;;;;4.45;2.65;;;;;;;20.92;38.48;99551.33;1638144;87;20933;-60
2022/04/09 07:09:13;;;;;;;3.30;2.58;;;;;;;20.93;38.44;99552.95;1638037;87;21079;-60
2022/04/09 07:11:39;;;;;;;4.05;3.05;;;;;;;20.93;38.42;99544.66;1650048;85;21271;-60
2022/04/09 07:14:05;;;;;;;3.70;2.65;;;;;;;20.94;38.44;99542.70;1662451;86;21311;-60
2022/04/09 07:16:31;;;;;;;3.55;2.75;;;;;;;20.93;38.43;99544.66;1662115;86;20925;-60
2022/04/09 07:18:57;;;;;;;3.55;2.75;;;;;;;20.94;38.44;99545.46;1662545;86;21429;-60
2022/04/09 07:21:23;;;;;;;3.50;2.60;;;;;;;20.93;38.43;99532.21;1662443;86;20981;-60
2022/04/09 07:23:49;;;;;;;3.50;2.55;;;;;;;20.94;38.44;99539.93;1662285;86;21033;-59
2022/04/09 07:26:16;;;;;;;3.62;2.70;;;;;;;20.93;38.42;99536.93;1662652;86;21177;-60
2022/04/09 07:28:49;;;;;;;3.60;2.62;;;;;;;20.95;38.42;99540.17;1662604;86;21402;-60
2022/04/09 07:31:15;;;;;;;3.17;2.60;;;;;;;20.94;38.43;99544.08;1662393;85;21304;-59
2022/04/09 07:33:41;;;;;;;4.15;2.67;;;;;;;20.95;38.42;99547.08;1662637;86;22047;-60
2022/04/09 07:36:07;;;;;;;5.28;2.55;;;;;;;20.95;38.41;99542.36;1662704;86;20918;-59
2022/04/09 07:38:33;;;;;;;4.37;2.83;;;;;;;20.95;38.42;99548.46;1662260;86;21156;-60
2022/04/09 07:40:59;;;;;;;4.37;2.72;;;;;;;20.95;38.43;99548.46;1662528;86;20940;-60
2022/04/09 07:43:25;;;;;;;3.77;2.37;;;;;;;20.96;38.42;99548.70;1662111;86;20977;-60
2022/04/09 07:45:51;;;;;;;5.40;2.72;;;;;;;20.96;38.43;99550.08;1662423;85;21402;-60
2022/04/09 07:48:17;;;;;;;3.58;2.70;;;;;;;20.97;38.43;99551.66;1662678;86;20945;-60
2022/04/09 07:50:43;;;;;;;2.98;2.47;;;;;;;20.97;38.46;99549.70;1662614;86;21325;-60
2022/04/09 07:53:11;;;;;;;3.65;2.45;;;;;;;20.97;38.45;99542.80;1662185;86;21013;-60
2022/04/09 07:55:37;;;;;;;3.02;2.35;;;;;;;20.98;38.46;99547.18;1662505;85;21047;-60
2022/04/09 07:58:05;;;;;;;2.80;2.20;;;;;;;20.99;38.46;99545.22;1662243;86;38887;-59
2022/04/09 08:00:31;;;;;;;3.12;2.25;;;;;;;21.00;38.47;99543.27;1637610;86;21108;-60
2022/04/09 08:02:57;;;;;;;4.05;2.58;;;;;;;21.01;38.47;99547.62;1662498;85;21320;-60
2022/04/09 08:05:23;;;;;;;3.75;2.80;;;;;;;21.01;38.48;99542.09;1662338;86;20941;-60
2022/04/09 08:07:49;;;;;;;3.83;2.60;;;;;;;21.01;38.47;99546.23;1662402;85;20910;-60
2022/04/09 08:10:16;;;;;;;3.77;2.75;;;;;;;21.02;38.46;99538.17;1662209;85;20922;-59
2022/04/09 08:12:42;;;;;;;4.37;2.67;;;;;;;21.03;38.47;99546.70;1637630;86;21412;-59
2022/04/09 08:15:10;;;;;;;3.75;2.05;;;;;;;21.03;38.49;99540.59;1662249;86;21019;-60
2022/04/09 08:17:39;;;;;;;3.87;2.55;;;;;;;21.03;38.46;99540.59;1662531;86;21307;-60
2022/04/09 08:20:07;;;;;;;4.55;2.67;;;;;;;21.03;38.49;99536.45;1662289;85;20843;-60
2022/04/09 08:22:34;;;;;;;3.50;2.52;;;;;;;21.04;38.49;99531.16;1662653;86;21013;-60
2022/04/09 08:25:02;;;;;;;3.12;2.45;;;;;;;21.05;38.46;99530.58;1662589;86;20969;-60
2022/04/09 08:27:28;;;;;;;3.98;2.35;;;;;;;21.05;38.49;99525.05;1662407;86;21471;-60
2022/04/09 08:29:54;;;;;;;4.22;2.60;;;;;;;21.06;38.48;99523.30;1662336;86;20933;-59
2022/04/09 08:32:23;;;;;;;3.67;2.50;;;;;;;21.06;38.48;99527.45;1662332;85;21326;-59
2022/04/09 08:34:49;;;;;;;3.60;2.52;;;;;;;21.06;38.48;99524.68;1662756;85;21085;-59
2022/04/09 08:37:15;;;;;;;4.20;2.30;;;;;;;21.07;38.46;99531.02;1662247;86;21104;-60
2022/04/09 08:39:41;;;;;;;3.92;2.67;;;;;;;21.07;38.45;99518.58;1662549;86;21070;-60
2022/04/09 08:42:08;;;;;;;4.35;2.30;;;;;;;21.07;38.43;99514.42;1661811;85;21416;-60
2022/04/09 08:44:35;;;;;;;3.95;2.55;;;;;;;21.07;38.43;99513.85;1661522;86;21485;-60
2022/04/09 08:47:01;;;;;;;3.10;2.22;;;;;;;21.07;38.43;99520.77;1662565;86;21012;-60
2022/04/09 08:49:29;;;;;;;3.58;2.42;;;;;;;21.09;38.41;99510.75;1662663;86;20997;-59
2022/04/09 08:51:55;;;;;;;3.72;2.45;;;;;;;21.08;38.40;99507.75;1662515;86;21261;-60
2022/04/09 08:54:21;;;;;;;3.45;2.42;;;;;;;21.09;38.41;99513.52;1662564;86;20929;-60
2022/04/09 08:56:49;;;;;;;3.42;2.50;;;;;;;21.10;38.39;99509.56;1662931;86;20894;-60
2022/04/09 08:59:15;;;;;;;3.17;2.42;;;;;;;21.10;38.37;99510.95;1637927;86;20930;-59
2022/04/09 09:01:41;;;;;;;4.33;2.20;;;;;;;21.10;38.37;99506.80;1662867;85;21048;-60
2022/04/09 09:04:07;;;;;;;4.53;2.40;;;;;;;21.11;38.36;99505.66;1662498;86;21005;-59
2022/04/09 09:06:35;;;;;;;3.15;2.22;;;;;;;21.11;38.35;99503.70;1662577;86;20988;-60
2022/04/09 09:09:04;;;;;;;3.47;2.33;;;;;;;21.11;38.36;99502.31;1662621;85;20974;-59
2022/04/09 09:11:46;;;;;;;4.95;2.77;;;;;;;21.11;38.35;99507.84;1659052;85;21096;-59
2022/04/09 09:14:27;;;;;;;5.25;2.40;;;;;;;21.12;38.35;99500.36;1638127;87;20926;-60
2022/04/09 09:16:54;;;;;;;4.45;2.25;;;;;;;21.11;38.33;99494.59;1638333;87;21258;-60
2022/04/09 09:19:21;;;;;;;3.67;2.27;;;;;;;21.12;38.31;99485.14;1638107;87;21031;-59
2022/04/09 09:21:54;;;;;;;3.10;2.33;;;;;;;21.12;38.31;99492.06;1638193;87;21393;-59
2022/04/09 09:24:20;;;;;;;2.80;2.25;;;;;;;21.13;38.29;99484.02;1638351;87;21373;-60
2022/04/09 09:26:50;;;;;;;3.10;2.20;;;;;;;21.13;38.31;99479.88;1638104;87;20937;-60
2022/04/09 09:29:27;;;;;;;4.20;2.80;;;;;;;21.13;38.31;99482.64;1616019;87;21048;-59
2022/04/09 09:31:54;;;;;;;3.30;2.15;;;;;;;21.13;38.28;99475.73;1638176;87;21006;-59
2022/04/09 09:34:20;;;;;;;3.83;2.30;;;;;;;21.13;38.27;99472.36;1638343;86;21230;-59
2022/04/09 09:36:47;;;;;;;4.03;2.50;;;;;;;21.15;38.26;99473.40;1638410;87;21047;-59
2022/04/09 09:39:22;;;;;;;5.15;2.30;;;;;;;21.15;38.25;99472.02;1637920;87;21289;-59
2022/04/09 09:41:55;;;;;;;4.55;2.50;;;;;;;21.15;38.27;99465.09;1638767;87;21686;-59
2022/04/09 09:44:25;;;;;;;3.10;2.35;;;;;;;21.15;38.26;99455.42;1637850;87;20905;-59
2022/04/09 09:46:53;;;;;;;3.15;2.10;;;;;;;21.15;38.23;99459.56;1637893;87;21079;-59
2022/04/09 09:49:22;;;;;;;3.80;2.37;;;;;;;21.16;38.23;99463.95;1638168;87;21044;-59
2022/04/09 09:52:09;;;;;;;4.00;2.55;;;;;;;21.16;38.23;99460.61;1638274;87;20980;-60
2022/04/09 09:55:13;;;;;;;6.22;2.40;;;;;;;21.16;38.21;99457.03;1638330;86;21125;-59
2022/04/09 09:57:48;;;;;;;3.30;2.30;;;;;;;21.17;38.22;99458.66;1637859;87;20917;-59
2022/04/09 10:00:14;;;;;;;2.98;2.35;;;;;;;21.17;38.19;99446.20;1638648;87;20976;-59
2022/04/09 10:02:41;;;;;;;3.15;2.20;;;;;;;21.16;38.19;99440.44;1638396;87;20983;-59
2022/04/09 10:05:08;;;;;;;3.17;2.22;;;;;;;21.16;38.20;99437.67;1637968;86;21983;-59
2022/04/09 10:07:35;;;;;;;3.10;2.15;;;;;;;21.16;38.21;99429.37;1638303;86;21134;-59
2022/04/09 10:10:05;;;;;;;4.50;2.27;;;;;;;21.16;38.22;99438.48;1638008;87;21579;-59
2022/04/09 10:12:39;;;;;;;4.28;2.40;;;;;;;21.17;38.22;99433.19;1648711;84;21028;-59
2022/04/09 10:15:06;;;;;;;3.80;2.25;;;;;;;21.18;38.23;99432.58;1661969;86;21088;-59
2022/04/09 10:17:32;;;;;;;3.62;2.02;;;;;;;21.17;38.21;99422.13;1662752;86;21115;-59
2022/04/09 10:20:01;;;;;;;3.35;2.20;;;;;;;21.18;38.23;99422.90;1662489;86;21374;-59
2022/04/09 10:22:35;;;;;;;4.65;2.10;;;;;;;21.18;38.22;99418.75;1662742;86;21367;-59
2022/04/09 10:25:03;;;;;;;3.12;1.80;;;;;;;21.18;38.21;99414.60;1662502;85;20962;-59
2022/04/09 10:27:38;;;;;;;3.72;2.40;;;;;;;21.19;38.22;99421.75;1662534;86;20914;-59
2022/04/09 10:30:17;;;;;;;3.98;2.12;;;;;;;21.18;38.22;99412.64;1662476;86;21077;-59
2022/04/09 10:32:51;;;;;;;4.72;2.50;;;;;;;21.20;38.21;99412.30;1658364;86;21074;-59
2022/04/09 10:35:38;;;;;;;2.83;2.00;;;;;;;21.19;38.21;99419.79;1662455;86;20965;-59
2022/04/09 10:38:16;;;;;;;3.33;2.22;;;;;;;21.19;38.19;99407.91;1662644;86;21331;-59
2022/04/09 10:40:57;;;;;;;3.83;2.22;;;;;;;21.20;38.20;99420.02;1662438;86;20993;-59
2022/04/09 10:43:27;;;;;;;;;;;;;;;21.19;38.17;99411.49;1665393;86;21002;-59
2022/04/09 10:46:10;;;;;;;5.37;2.20;;;;;;;21.19;38.22;99415.64;1663213;86;20983;-59
2022/04/09 10:48:47;;;;;;;3.02;2.15;;;;;;;21.19;38.16;99414.26;1645921;87;20925;-59
2022/04/09 10:51:14;;;;;;;5.85;2.33;;;;;;;21.20;38.17;99413.68;1662093;86;21355;-59
2022/04/09 10:53:49;;;;;;;3.92;2.20;;;;;;;21.20;38.15;99402.62;1662494;86;21350;-59
2022/04/09 10:56:24;;;;;;;3.75;2.30;;;;;;;21.20;38.18;99412.30;1662443;86;21408;-59
2022/04/09 10:59:16;;;;;;;2.72;2.10;;;;;;;21.20;38.18;99402.05;1662852;85;21251;-59
2022/04/09 11:01:50;;;;;;;3.85;2.12;;;;;;;21.21;38.20;99398.70;1662455;86;20965;-59
2022/04/09 11:07:08;;;;;;;3.02;2.12;;;;;;;21.22;38.16;99401.67;1662584;85;20973;-59
2022/04/09 11:10:06;;;;;;;3.50;2.10;;;;;;;21.24;38.16;99403.52;1662382;85;21360;-59
2022/04/09 11:12:42;;;;;;;3.12;2.10;;;;;;;21.24;38.16;99409.05;1662302;85;21693;-59
2022/04/09 11:15:10;;;;;;;3.20;2.12;;;;;;;21.23;38.13;99409.62;1662893;86;20925;-59
2022/04/09 11:17:45;;;;;;;3.02;2.20;;;;;;;21.24;38.14;99412.62;1662466;86;21760;-59
2022/04/09 11:20:22;;;;;;;3.58;1.95;;;;;;;21.23;38.15;99409.62;1662838;86;21036;-59
2022/04/09 11:22:53;;;;;;;3.25;2.00;;;;;;;21.23;38.16;99404.09;1662408;86;21012;-59
2022/04/09 11:25:25;;;;;;;3.67;1.98;;;;;;;21.25;38.15;99398.21;1662781;85;21855;-59
2022/04/09 11:27:52;;;;;;;3.33;2.25;;;;;;;21.25;38.14;99393.48;1661854;86;21241;-59
2022/04/09 11:30:19;;;;;;;2.62;1.90;;;;;;;21.25;38.14;99401.78;1662754;85;21481;-59
2022/04/09 11:32:48;;;;;;;2.98;2.10;;;;;;;21.25;38.15;99400.98;1662741;86;21369;-59
2022/04/09 11:35:17;;;;;;;2.70;1.92;;;;;;;21.25;38.14;99403.17;1662229;86;21457;-59
2022/04/09 11:37:50;;;;;;;3.62;2.20;;;;;;;21.25;38.14;99405.13;1662497;85;21642;-59
2022/04/09 11:40:18;;;;;;;4.25;2.17;;;;;;;21.25;38.14;99399.02;1662396;86;20957;-59